Time;durP1;ratioP1;P1;durP2;ratioP2;P2;SDS_P1;SDS_P2;PMS_P1;PMS_P2;Temp;Humidity;BMP_temperature;BMP_pressure;BME280_temperature;BME280_humidity;BME280_pressure;Samples;Min_cycle;Max_cycle;Signal;HPM_P1;HPM_P2
2022/01/15 00:02:05;;;;;;;20.63;11.80;;;;;;;-2.74;100.00;97526.22;5033734;28;20502;-75
2022/01/15 00:04:33;;;;;;;21.60;11.97;;;;;;;-2.78;100.00;97529.78;5036030;28;20021;-76
2022/01/15 00:07:00;;;;;;;21.90;13.03;;;;;;;-2.75;100.00;97519.41;5032437;28;20106;-75
2022/01/15 00:09:26;;;;;;;19.53;10.93;;;;;;;-2.72;100.00;97524.41;5004440;28;21216;-75
2022/01/15 00:11:52;;;;;;;21.90;12.20;;;;;;;-2.76;100.00;97519.41;5021016;28;20471;-75
2022/01/15 00:14:26;;;;;;;19.67;11.87;;;;;;;-2.73;100.00;97527.91;4998759;28;20033;-79
2022/01/15 00:16:57;;;;;;;34.47;19.15;;;;;;;-2.75;100.00;97527.13;5033428;28;20517;-75
2022/01/15 00:19:36;;;;;;;23.03;14.00;;;;;;;-2.67;100.00;97530.28;5031141;28;20870;-75
2022/01/15 00:22:02;;;;;;;22.90;13.87;;;;;;;-2.74;100.00;97528.78;5018399;28;20432;-75
2022/01/15 00:24:28;;;;;;;22.97;13.57;;;;;;;-2.75;100.00;97529.69;5006596;28;20456;-75
2022/01/15 00:26:54;;;;;;;27.50;15.17;;;;;;;-2.75;100.00;97532.25;5036247;28;20490;-75
2022/01/15 00:29:19;;;;;;;23.77;14.83;;;;;;;-2.80;100.00;97528.13;5003139;28;20048;-75
2022/01/15 00:31:45;;;;;;;20.97;13.00;;;;;;;-2.80;100.00;97526.41;5017417;28;20029;-78
2022/01/15 00:34:10;;;;;;;18.83;11.17;;;;;;;-2.78;100.00;97519.47;5012424;28;21131;-75
2022/01/15 00:36:36;;;;;;;21.87;12.67;;;;;;;-2.75;100.00;97519.41;5012271;28;20434;-75
2022/01/15 00:39:02;;;;;;;22.53;12.67;;;;;;;-2.81;100.00;97522.16;5012298;28;20398;-75
2022/01/15 00:41:28;;;;;;;22.33;13.20;;;;;;;-2.86;100.00;97522.25;5017305;28;20631;-75
2022/01/15 00:43:54;;;;;;;25.63;13.30;;;;;;;-2.88;100.00;97520.66;5019630;28;20742;-75
2022/01/15 00:46:19;;;;;;;23.53;12.53;;;;;;;-2.88;100.00;97508.63;5030068;28;20033;-75
2022/01/15 00:48:45;;;;;;;19.20;11.53;;;;;;;-2.86;100.00;97514.53;5013609;28;20033;-75
2022/01/15 00:51:11;;;;;;;20.53;12.47;;;;;;;-2.85;100.00;97523.09;5001639;28;20567;-75
2022/01/15 00:53:36;;;;;;;23.93;13.30;;;;;;;-2.86;100.00;97505.97;5034164;28;20462;-75
2022/01/15 00:56:02;;;;;;;18.00;12.40;;;;;;;-2.89;100.00;97503.50;5046074;28;20051;-75
2022/01/15 00:58:28;;;;;;;21.27;12.63;;;;;;;-2.86;100.00;97508.56;5024667;28;20067;-75
2022/01/15 01:00:54;;;;;;;20.37;12.20;;;;;;;-2.84;100.00;97514.50;5038468;28;20520;-75
2022/01/15 01:03:19;;;;;;;23.13;14.43;;;;;;;-2.85;100.00;97507.66;5049018;28;20052;-75
2022/01/15 01:05:45;;;;;;;22.37;13.10;;;;;;;-2.82;100.00;97504.16;5012511;28;20029;-75
2022/01/15 01:08:11;;;;;;;23.30;14.10;;;;;;;-2.81;100.00;97509.28;5033021;28;20147;-75
2022/01/15 01:10:55;;;;;;;20.80;13.07;;;;;;;-2.80;100.00;97505.81;5016737;28;20032;-76
2022/01/15 01:24:04;;;;;;;23.80;12.40;;;;;;;-3.01;100.00;97501.31;5024315;28;20570;-75
2022/01/15 01:26:40;;;;;;;20.13;12.60;;;;;;;-3.05;100.00;97489.38;5037109;28;20463;-75
2022/01/15 01:29:28;;;;;;;19.07;12.13;;;;;;;-3.02;100.00;97491.88;5022388;28;21309;-75
2022/01/15 01:32:10;;;;;;;23.93;13.60;;;;;;;-2.97;100.00;97498.59;5022328;28;20443;-75
2022/01/15 01:34:39;;;;;;;24.77;12.97;;;;;;;-2.95;100.00;97490.81;5037867;28;20455;-75
2022/01/15 01:37:13;;;;;;;20.20;12.23;;;;;;;-2.97;100.00;97483.13;5019190;28;20983;-75
2022/01/15 01:39:49;;;;;;;;;;;;;;;-3.02;100.00;97494.44;5024602;28;20841;-75
2022/01/15 01:45:00;;;;;;;20.97;11.53;;;;;;;-2.97;100.00;97475.41;5022470;28;20564;-75
2022/01/15 01:47:38;;;;;;;21.67;12.27;;;;;;;-3.06;100.00;97487.72;5018175;28;20444;-75
2022/01/15 01:50:05;;;;;;;18.77;11.80;;;;;;;-2.98;100.00;97475.47;5011177;28;20494;-75
2022/01/15 01:52:31;;;;;;;22.33;12.67;;;;;;;-3.01;100.00;97471.25;5005529;28;20456;-75
2022/01/15 01:54:57;;;;;;;18.70;12.67;;;;;;;-3.09;100.00;97479.19;5039847;28;20774;-75
2022/01/15 01:57:23;;;;;;;19.87;12.77;;;;;;;-3.09;100.00;97479.19;5024632;28;20836;-75
2022/01/15 01:59:49;;;;;;;19.50;11.10;;;;;;;-3.10;100.00;97464.66;5012957;28;20498;-75
2022/01/15 02:02:15;;;;;;;21.93;12.00;;;;;;;-3.17;100.00;97473.44;5011130;28;20479;-75
2022/01/15 02:04:41;;;;;;;20.30;12.00;;;;;;;-3.19;100.00;97472.63;5024145;28;20036;-76
2022/01/15 02:07:06;;;;;;;18.97;11.87;;;;;;;-3.20;100.00;97470.09;5029019;28;20033;-75
2022/01/15 02:09:32;;;;;;;20.97;12.03;;;;;;;-3.18;100.00;97469.19;5006724;28;20509;-76
2022/01/15 02:11:58;;;;;;;19.43;12.33;;;;;;;-3.18;100.00;97460.63;4995858;28;20152;-75
2022/01/15 02:14:28;;;;;;;19.93;11.60;;;;;;;-3.19;100.00;97454.63;5026278;28;20418;-75
2022/01/15 02:16:55;;;;;;;17.80;11.43;;;;;;;-3.26;100.00;97452.28;5022284;28;20505;-76
2022/01/15 02:19:20;;;;;;;20.50;12.80;;;;;;;-3.30;100.00;97448.13;5030590;28;20522;-77
2022/01/15 02:24:12;;;;;;;19.60;13.60;;;;;;;-3.19;100.00;97446.91;5023382;28;20029;-75
2022/01/15 02:26:39;;;;;;;20.73;12.33;;;;;;;-3.20;100.00;97444.38;5042933;28;20036;-75
2022/01/15 02:29:07;;;;;;;21.87;12.40;;;;;;;-3.16;100.00;97436.53;5029691;28;20025;-75
2022/01/15 02:31:36;;;;;;;20.33;12.67;;;;;;;-3.16;100.00;97445.97;5022621;28;20478;-75
2022/01/15 02:34:04;;;;;;;22.73;13.03;;;;;;;-3.18;100.00;97440.88;5014569;28;20494;-75
2022/01/15 02:36:32;;;;;;;21.63;13.57;;;;;;;-3.18;100.00;97432.31;5013273;28;20468;-76
2022/01/15 02:38:59;;;;;;;23.27;14.23;;;;;;;-3.19;100.00;97435.78;4991581;28;20465;-75
2022/01/15 02:41:33;;;;;;;21.33;12.97;;;;;;;-3.18;100.00;97442.63;5001913;28;21285;-75
2022/01/15 02:44:01;;;;;;;25.77;13.67;;;;;;;-3.18;100.00;97442.63;5028781;28;20473;-75
2022/01/15 02:48:55;;;;;;;25.43;15.37;;;;;;;-3.14;100.00;97433.91;5033513;28;20504;-75
2022/01/15 02:51:23;;;;;;;24.27;14.30;;;;;;;-3.13;100.00;97431.28;5018765;28;20503;-75
2022/01/15 02:53:55;;;;;;;25.37;14.90;;;;;;;-3.10;100.00;97414.91;4998314;28;20608;-75
2022/01/15 02:56:23;;;;;;;23.50;14.63;;;;;;;-3.11;100.00;97426.94;5048553;28;20467;-76
2022/01/15 02:58:49;;;;;;;24.83;15.17;;;;;;;-3.16;100.00;97421.09;5025913;28;21306;-75
2022/01/15 03:01:15;;;;;;;26.90;15.90;;;;;;;-3.10;100.00;97414.91;4999979;28;20488;-75
2022/01/15 03:03:40;;;;;;;23.97;15.30;;;;;;;-3.15;100.00;97416.81;5019389;28;20100;-75
2022/01/15 03:06:15;;;;;;;24.47;15.20;;;;;;;-3.20;100.00;97419.50;4997038;28;20045;-75
2022/01/15 03:08:43;;;;;;;23.73;15.00;;;;;;;-3.22;100.00;97410.13;5028255;28;20116;-75
2022/01/15 03:11:09;;;;;;;23.23;14.13;;;;;;;-3.15;100.00;97409.09;5019723;28;20446;-75
2022/01/15 03:13:37;;;;;;;23.70;15.57;;;;;;;-3.19;100.00;97407.47;5024662;28;20600;-75
2022/01/15 03:16:04;;;;;;;28.43;15.13;;;;;;;-3.24;100.00;97410.19;5014237;28;20487;-76
2022/01/15 03:18:29;;;;;;;24.40;15.03;;;;;;;-3.28;100.00;97388.03;5013331;28;21061;-75
2022/01/15 03:20:55;;;;;;;25.53;16.20;;;;;;;-3.32;100.00;97397.56;5030184;28;20448;-75
2022/01/15 03:23:21;;;;;;;29.03;17.20;;;;;;;-3.30;100.00;97397.50;5021778;28;20048;-75
2022/01/15 03:25:49;;;;;;;31.77;17.13;;;;;;;-3.27;100.00;97397.41;5044589;28;20028;-75
2022/01/15 03:28:15;;;;;;;29.43;17.43;;;;;;;-3.30;100.00;97394.09;5016255;28;20025;-75
2022/01/15 03:30:40;;;;;;;44.37;20.50;;;;;;;-3.23;100.00;97396.44;5007290;28;20480;-75
2022/01/15 03:33:06;;;;;;;31.97;20.50;;;;;;;-3.19;100.00;97385.16;5025938;28;20053;-75
2022/01/15 03:35:34;;;;;;;32.37;20.80;;;;;;;-3.19;100.00;97379.16;5003156;28;20037;-75
2022/01/15 03:37:59;;;;;;;33.27;21.20;;;;;;;-3.15;100.00;97378.22;5018689;28;20485;-75
2022/01/15 03:40:26;;;;;;;34.20;21.30;;;;;;;-3.13;100.00;97377.25;5020868;28;21204;-75
2022/01/15 03:42:52;;;;;;;32.63;20.90;;;;;;;-3.15;100.00;97371.34;5016036;28;20455;-75
2022/01/15 03:45:19;;;;;;;34.37;21.43;;;;;;;-3.23;100.00;97375.84;5019351;28;20479;-75
2022/01/15 03:47:46;;;;;;;32.80;21.23;;;;;;;-3.25;100.00;97371.63;5054951;28;20424;-75
2022/01/15 03:50:13;;;;;;;31.50;21.10;;;;;;;-3.30;100.00;97366.63;5022519;28;20486;-75
2022/01/15 03:52:40;;;;;;;32.83;20.97;;;;;;;-3.27;100.00;97374.25;5022784;28;20467;-75
2022/01/15 03:55:09;;;;;;;33.20;21.00;;;;;;;-3.26;100.00;97369.97;5024985;28;20487;-75
2022/01/15 03:57:36;;;;;;;36.83;22.57;;;;;;;-3.21;100.00;97376.66;5049837;28;20500;-75
2022/01/15 04:00:09;;;;;;;34.20;21.50;;;;;;;-3.20;100.00;97370.63;5021731;28;22409;-75
2022/01/15 04:02:38;;;;;;;32.07;21.20;;;;;;;-3.25;100.00;97375.06;5037687;28;20427;-75
2022/01/15 04:05:04;;;;;;;35.97;21.87;;;;;;;-3.26;100.00;97375.94;5018828;28;20462;-75
2022/01/15 04:07:29;;;;;;;30.33;21.93;;;;;;;-3.28;100.00;97364.88;5017805;28;20463;-75
2022/01/15 04:09:55;;;;;;;31.57;19.43;;;;;;;-3.32;100.00;97368.41;5029746;28;21229;-75
2022/01/15 04:12:21;;;;;;;30.77;20.30;;;;;;;-3.35;100.00;97368.53;5042669;28;20495;-75
2022/01/15 04:14:46;;;;;;;31.53;18.10;;;;;;;-3.36;100.00;97377.94;5024073;28;20040;-75
2022/01/15 04:17:12;;;;;;;34.30;18.43;;;;;;;-3.40;100.00;97381.50;5039892;28;20072;-76
2022/01/15 04:19:40;;;;;;;27.00;18.07;;;;;;;-3.46;100.00;97368.00;5026293;28;20048;-75
2022/01/15 04:22:06;;;;;;;28.90;18.97;;;;;;;-3.42;100.00;97365.28;5036215;28;20057;-77
2022/01/15 04:24:32;;;;;;;31.87;20.60;;;;;;;-3.33;100.00;97366.72;5024818;28;20503;-75
2022/01/15 04:26:57;;;;;;;31.27;19.97;;;;;;;-3.35;100.00;97366.78;5043324;28;20044;-75
2022/01/15 04:29:23;;;;;;;36.37;22.13;;;;;;;-3.31;100.00;97370.13;5036601;28;20041;-75
2022/01/15 04:31:51;;;;;;;31.73;20.13;;;;;;;-3.35;100.00;97373.66;5022264;28;20032;-75
2022/01/15 04:34:24;;;;;;;31.87;21.20;;;;;;;-3.32;100.00;97376.13;5027694;28;20044;-75
2022/01/15 04:36:51;;;;;;;;;;;;;;;-3.36;100.00;97389.97;5024640;28;20979;-75
2022/01/15 04:39:17;;;;;;;32.80;20.57;;;;;;;-3.37;100.00;97386.56;5016276;28;19948;-75
2022/01/15 04:41:43;;;;;;;35.70;22.83;;;;;;;-3.40;100.00;97386.66;5022822;28;20447;-75
2022/01/15 04:44:09;;;;;;;34.40;21.80;;;;;;;-3.36;100.00;97387.41;5022267;28;20553;-75
2022/01/15 04:46:37;;;;;;;33.87;22.20;;;;;;;-3.36;100.00;97377.94;5035033;28;20060;-75
2022/01/15 04:49:04;;;;;;;33.87;21.77;;;;;;;-3.34;100.00;97380.50;5008380;28;21062;-75
2022/01/15 04:51:30;;;;;;;33.33;22.03;;;;;;;-3.38;100.00;97381.47;5047864;28;20482;-74
2022/01/15 04:53:56;;;;;;;32.37;20.93;;;;;;;-3.37;100.00;97388.28;5039349;28;20502;-75
2022/01/15 04:56:21;;;;;;;35.40;21.80;;;;;;;-3.38;100.00;97381.47;5008827;28;20471;-75
2022/01/15 04:58:47;;;;;;;35.87;21.27;;;;;;;-3.42;100.00;97385.00;5027469;28;20064;-75
2022/01/15 05:01:13;;;;;;;33.77;21.93;;;;;;;-3.41;100.00;97386.72;5016918;28;20057;-76
2022/01/15 05:03:38;;;;;;;36.60;21.70;;;;;;;-3.33;100.00;97379.59;5022019;28;20033;-75
2022/01/15 05:06:05;;;;;;;34.47;21.47;;;;;;;-3.33;100.00;97388.16;5004799;28;20036;-75
2022/01/15 05:08:31;;;;;;;38.03;23.67;;;;;;;-3.33;100.00;97387.31;5020491;28;20037;-75
2022/01/15 05:10:59;;;;;;;37.90;23.87;;;;;;;-3.36;100.00;97387.41;5022153;28;20471;-75
2022/01/15 05:13:29;;;;;;;34.67;23.20;;;;;;;-3.40;100.00;97384.06;5013166;28;20478;-77
2022/01/15 05:15:55;;;;;;;36.40;22.43;;;;;;;-3.39;100.00;97379.78;5044446;28;20456;-75
2022/01/15 05:18:21;;;;;;;36.40;22.47;;;;;;;-3.41;100.00;97374.69;5028467;28;20554;-75
2022/01/15 05:20:47;;;;;;;37.57;24.03;;;;;;;-3.39;100.00;97372.06;5007431;28;21100;-75
2022/01/15 05:23:13;;;;;;;38.43;23.30;;;;;;;-3.47;100.00;97377.44;5003243;28;20039;-75
2022/01/15 05:25:40;;;;;;;37.83;24.03;;;;;;;-3.49;100.00;97376.63;5015515;28;21035;-75
2022/01/15 05:28:07;;;;;;;34.20;21.63;;;;;;;-3.57;100.00;97374.28;5022174;28;20484;-75
2022/01/15 05:30:33;;;;;;;34.77;22.20;;;;;;;-3.54;100.00;97375.94;5022208;28;20514;-75
2022/01/15 05:32:59;;;;;;;35.53;22.23;;;;;;;-3.58;100.00;97377.75;5015651;28;20464;-75
2022/01/15 05:35:27;;;;;;;35.47;22.63;;;;;;;-3.58;100.00;97377.75;5027573;28;20479;-75
2022/01/15 05:37:54;;;;;;;36.17;22.60;;;;;;;-3.55;100.00;97371.69;5034523;28;20037;-75
2022/01/15 05:40:19;;;;;;;35.10;21.50;;;;;;;-3.53;100.00;97381.91;5015146;28;20530;-75
2022/01/15 05:42:46;;;;;;;31.20;20.93;;;;;;;-3.55;100.00;97379.41;5042408;28;20570;-75
2022/01/15 05:45:13;;;;;;;38.37;22.70;;;;;;;-3.53;100.00;97392.19;5028109;28;20018;-75
2022/01/15 05:47:39;;;;;;;34.40;21.57;;;;;;;-3.50;100.00;97385.22;5011883;28;20436;-75
2022/01/15 05:50:06;;;;;;;36.87;23.47;;;;;;;-3.44;100.00;97384.22;5020532;28;20475;-75
2022/01/15 05:52:32;;;;;;;39.13;23.20;;;;;;;-3.42;100.00;97388.44;5018371;28;20460;-75
2022/01/15 05:54:59;;;;;;;36.93;23.00;;;;;;;-3.40;100.00;97375.53;5013112;28;20479;-75
2022/01/15 05:57:24;;;;;;;36.13;22.93;;;;;;;-3.40;100.00;97386.66;5028571;28;20024;-75
2022/01/15 05:59:53;;;;;;;36.53;23.03;;;;;;;-3.36;100.00;97383.09;5025238;28;20520;-75
2022/01/15 06:02:19;;;;;;;34.90;23.07;;;;;;;-3.39;100.00;97379.78;5023319;28;20064;-75
2022/01/15 06:04:45;;;;;;;36.17;23.37;;;;;;;-3.34;100.00;97378.75;5019388;28;20447;-75
2022/01/15 06:07:11;;;;;;;35.00;22.50;;;;;;;-3.38;100.00;97381.47;5039649;28;20501;-76
2022/01/15 06:09:37;;;;;;;38.23;23.97;;;;;;;-3.43;100.00;97380.75;5020628;28;20125;-75
2022/01/15 06:12:03;;;;;;;39.03;23.20;;;;;;;-3.38;100.00;97382.31;5021811;28;20064;-75
2022/01/15 06:14:30;;;;;;;42.67;22.97;;;;;;;-3.33;100.00;97382.16;5019380;28;20037;-75
2022/01/15 06:16:59;;;;;;;40.80;24.73;;;;;;;-3.32;100.00;97378.69;5019942;28;20459;-75
2022/01/15 06:19:26;;;;;;;37.33;22.77;;;;;;;-3.42;100.00;97374.72;4994452;28;20479;-75
2022/01/15 06:21:52;;;;;;;38.03;23.87;;;;;;;-3.44;100.00;97373.94;5006820;28;20468;-76
2022/01/15 06:24:18;;;;;;;41.17;24.97;;;;;;;-3.42;100.00;97367.00;4998505;28;20464;-75
2022/01/15 06:26:45;;;;;;;43.97;25.70;;;;;;;-3.49;100.00;97368.06;5024101;28;21034;-75
2022/01/15 06:29:11;;;;;;;42.13;24.73;;;;;;;-3.46;100.00;97366.25;5015581;28;20041;-75
2022/01/15 06:31:37;;;;;;;44.87;25.80;;;;;;;-3.45;100.00;97372.25;5011848;28;20452;-75
2022/01/15 06:34:02;;;;;;;37.27;24.20;;;;;;;-3.40;100.00;97365.25;5029293;28;20095;-75
2022/01/15 06:36:28;;;;;;;40.23;23.37;;;;;;;-3.44;100.00;97371.38;5014918;28;20033;-75
2022/01/15 06:38:54;;;;;;;42.70;24.73;;;;;;;-3.45;100.00;97372.25;5006501;28;20025;-75
2022/01/15 06:41:19;;;;;;;35.70;23.73;;;;;;;-3.49;100.00;97380.94;5023964;28;20086;-75
2022/01/15 06:43:46;;;;;;;35.93;22.97;;;;;;;-3.53;100.00;97375.03;5014566;28;20033;-75
2022/01/15 06:46:11;;;;;;;38.30;21.67;;;;;;;-3.54;100.00;97372.53;5018114;28;20059;-74
2022/01/15 06:48:37;;;;;;;41.07;23.60;;;;;;;-3.55;100.00;97376.84;5020204;28;21039;-75
2022/01/15 06:51:03;;;;;;;36.90;22.27;;;;;;;-3.54;100.00;97377.66;5028333;28;20410;-75
2022/01/15 06:53:29;;;;;;;38.57;21.30;;;;;;;-3.58;100.00;97372.63;4999806;28;20037;-75
2022/01/15 06:55:55;;;;;;;40.80;23.17;;;;;;;-3.57;100.00;97371.72;5016633;28;20487;-74
2022/01/15 06:58:25;;;;;;;40.07;24.77;;;;;;;-3.60;100.00;97374.38;5014692;28;20032;-75
2022/01/15 07:00:51;;;;;;;39.73;23.57;;;;;;;-3.62;100.00;97372.72;4998612;28;20559;-75
2022/01/15 07:03:17;;;;;;;38.17;23.83;;;;;;;-3.60;100.00;97373.53;5047928;28;20797;-75
2022/01/15 07:05:42;;;;;;;37.00;22.07;;;;;;;-3.61;100.00;97375.28;5017175;28;20475;-75
2022/01/15 07:08:09;;;;;;;40.40;24.23;;;;;;;-3.62;100.00;97370.16;5019628;28;20104;-75
2022/01/15 07:10:39;;;;;;;46.27;29.97;;;;;;;-3.64;100.00;97365.06;5011153;28;20493;-75
2022/01/15 07:13:06;;;;;;;39.63;26.23;;;;;;;-3.61;100.00;97357.28;5018851;28;21088;-75
2022/01/15 07:15:32;;;;;;;40.20;24.77;;;;;;;-3.61;100.00;97351.28;5006427;28;20471;-75
2022/01/15 07:17:59;;;;;;;38.80;24.27;;;;;;;-3.61;100.00;97362.41;5021687;28;20475;-76
2022/01/15 07:20:27;;;;;;;41.90;25.03;;;;;;;-3.64;100.00;97359.94;5025454;28;20467;-75
2022/01/15 07:22:54;;;;;;;35.33;23.17;;;;;;;-3.51;100.00;97351.88;5010825;28;20428;-75
2022/01/15 07:25:20;;;;;;;39.67;24.87;;;;;;;-3.59;100.00;97354.66;5023825;28;20451;-75
2022/01/15 07:27:46;;;;;;;42.20;23.97;;;;;;;-3.57;100.00;97347.75;5016044;28;20834;-76
2022/01/15 07:30:14;;;;;;;38.20;24.40;;;;;;;-3.50;100.00;97345.84;5012250;28;20043;-75
2022/01/15 07:32:41;;;;;;;39.97;23.67;;;;;;;-3.54;100.00;97347.66;5018238;28;20459;-75
2022/01/15 07:35:08;;;;;;;41.17;25.80;;;;;;;-3.49;100.00;97352.66;5018562;28;20504;-75
2022/01/15 07:37:35;;;;;;;39.37;24.87;;;;;;;-3.50;100.00;97345.84;5028116;28;20447;-75
2022/01/15 07:40:02;;;;;;;42.83;24.07;;;;;;;-3.44;100.00;97355.94;5010360;28;20475;-75
2022/01/15 07:42:35;;;;;;;39.50;24.13;;;;;;;-3.40;100.00;97358.34;5020890;28;20458;-75
2022/01/15 07:45:02;;;;;;;39.07;25.97;;;;;;;-3.42;100.00;97346.44;5026218;28;20479;-75
2022/01/15 07:47:27;;;;;;;56.07;32.80;;;;;;;-3.35;100.00;97358.25;5032586;28;22293;-75
2022/01/15 07:49:53;;;;;;;65.67;36.30;;;;;;;-3.33;100.00;97353.88;5020495;28;20460;-75
2022/01/15 07:52:19;;;;;;;51.63;29.27;;;;;;;-3.33;100.00;97352.13;5020464;28;20546;-75
2022/01/15 07:54:45;;;;;;;46.23;26.33;;;;;;;-3.22;100.00;97348.38;5007017;28;20125;-75
2022/01/15 07:57:11;;;;;;;40.63;25.00;;;;;;;-3.23;100.00;97357.84;5001914;28;20472;-75
2022/01/15 07:59:36;;;;;;;39.43;23.07;;;;;;;-3.08;100.00;97352.22;5030239;28;20028;-75
2022/01/15 08:02:02;;;;;;;40.10;25.20;;;;;;;-2.97;100.00;97358.78;5002698;28;20040;-75
2022/01/15 08:04:29;;;;;;;41.37;24.33;;;;;;;-2.88;100.00;97356.75;5015799;28;20079;-76
2022/01/15 08:06:55;;;;;;;37.13;24.33;;;;;;;-2.61;100.00;97352.41;5029616;28;20471;-75
2022/01/15 08:09:21;;;;;;;35.93;23.97;;;;;;;-2.24;100.00;97340.88;5019020;28;20829;-75
2022/01/15 08:11:46;;;;;;;57.83;32.50;;;;;;;-2.16;100.00;97338.84;5003109;28;20347;-78
2022/01/15 08:14:12;;;;;;;42.50;26.40;;;;;;;-1.81;100.00;97341.03;5011943;28;20041;-75
2022/01/15 08:16:38;;;;;;;44.47;26.40;;;;;;;-1.48;100.00;97337.19;4999905;28;20578;-75
2022/01/15 08:19:03;;;;;;;42.53;25.53;;;;;;;-1.26;100.00;97331.25;5005449;28;20033;-75
2022/01/15 08:21:29;;;;;;;34.77;20.13;;;;;;;-1.24;100.00;97344.91;5016265;28;20028;-75
2022/01/15 08:23:55;;;;;;;38.73;21.13;;;;;;;-0.93;100.00;97339.38;5014868;28;20394;-76
2022/01/15 08:26:20;;;;;;;41.03;22.10;;;;;;;-0.73;100.00;97323.91;5022491;28;20059;-76
2022/01/15 08:28:48;;;;;;;36.87;21.57;;;;;;;-0.42;100.00;97334.72;5029650;28;20029;-75
2022/01/15 08:31:14;;;;;;;31.63;19.37;;;;;;;-0.19;100.00;97331.16;5017438;28;20029;-76
2022/01/15 08:33:39;;;;;;;30.27;19.23;;;;;;;-0.09;100.00;97330.69;5019984;28;21022;-76
2022/01/15 08:36:05;;;;;;;34.00;19.67;;;;;;;0.29;100.00;97332.47;5036314;28;20120;-77
2022/01/15 08:38:31;;;;;;;32.83;20.37;;;;;;;0.39;100.00;97331.16;5022472;28;20038;-75
2022/01/15 08:40:57;;;;;;;29.53;19.20;;;;;;;0.45;100.00;97329.13;4996836;28;20567;-75
2022/01/15 08:43:22;;;;;;;33.10;18.47;;;;;;;0.12;100.00;97331.47;5031006;28;20127;-76
2022/01/15 08:45:49;;;;;;;33.53;20.00;;;;;;;0.56;100.00;97325.22;5021565;28;20032;-75
2022/01/15 08:48:19;;;;;;;41.50;24.10;;;;;;;0.91;100.00;97320.97;5012987;28;20036;-75
2022/01/15 08:50:47;;;;;;;30.27;18.50;;;;;;;1.46;100.00;97310.50;5018586;28;20436;-76
2022/01/15 08:53:17;;;;;;;32.00;19.13;;;;;;;1.22;100.00;97317.75;5009936;28;21051;-76
2022/01/15 08:55:44;;;;;;;35.33;18.53;;;;;;;1.89;100.00;97310.91;5030558;28;20487;-76
2022/01/15 08:58:10;;;;;;;28.13;17.03;;;;;;;2.06;100.00;97312.63;5009447;28;20528;-76
2022/01/15 09:00:37;;;;;;;28.23;17.00;;;;;;;2.34;99.39;97314.59;5006323;28;20479;-79
2022/01/15 09:03:06;;;;;;;24.33;15.60;;;;;;;2.39;98.98;97309.19;5004089;28;20487;-77
2022/01/15 09:05:34;;;;;;;26.43;17.33;;;;;;;2.59;98.48;97307.16;5025061;28;20459;-77
2022/01/15 09:08:00;;;;;;;24.67;14.87;;;;;;;2.76;98.36;97301.03;5006198;28;20471;-79
2022/01/15 09:10:26;;;;;;;28.23;17.43;;;;;;;2.16;99.57;97302.59;5035083;28;20482;-79
2022/01/15 09:12:52;;;;;;;24.77;15.83;;;;;;;2.19;100.00;97315.44;4996439;28;20096;-79
2022/01/15 09:15:18;;;;;;;22.73;14.57;;;;;;;3.00;99.89;97298.00;5014027;28;20620;-77
2022/01/15 09:17:44;;;;;;;23.93;14.87;;;;;;;2.81;95.68;97300.78;5014693;28;20061;-79
2022/01/15 09:20:11;;;;;;;22.73;14.57;;;;;;;2.15;100.00;97301.78;5024887;28;20029;-80
2022/01/15 09:22:37;;;;;;;24.93;14.90;;;;;;;2.07;100.00;97299.56;5025907;28;20087;-80
2022/01/15 09:25:03;;;;;;;24.30;15.40;;;;;;;2.26;100.00;97303.78;5005429;28;20080;-80
2022/01/15 09:30:14;;;;;;;27.00;17.10;;;;;;;2.71;99.03;97289.22;5020201;28;20468;-79
2022/01/15 09:32:50;;;;;;;25.97;17.30;;;;;;;3.01;95.78;97286.69;5027003;28;20033;-80
2022/01/15 09:35:27;;;;;;;25.10;15.67;;;;;;;2.90;96.96;97284.69;5022577;28;20461;-80
2022/01/15 09:37:55;;;;;;;26.07;16.87;;;;;;;3.89;92.42;97279.81;5017584;28;20083;-80
2022/01/15 09:40:26;;;;;;;27.67;16.20;;;;;;;3.67;90.27;97283.69;5021641;28;20037;-81
2022/01/15 09:42:53;;;;;;;25.33;15.37;;;;;;;4.01;88.48;97281.69;5030706;28;20024;-80
2022/01/15 09:45:22;;;;;;;28.47;17.93;;;;;;;4.59;83.99;97285.88;5020072;28;20041;-81
2022/01/15 09:47:59;;;;;;;24.27;14.67;;;;;;;4.67;84.42;97275.84;5027843;28;20056;-82
2022/01/15 09:50:27;;;;;;;25.70;15.23;;;;;;;4.41;85.82;97274.88;5022633;28;20674;-80
2022/01/15 09:52:54;;;;;;;20.23;12.50;;;;;;;3.04;89.73;97281.31;5053799;28;20032;-81
2022/01/15 09:55:21;;;;;;;18.33;12.27;;;;;;;3.38;89.46;97280.19;5015248;28;20061;-81
2022/01/15 09:57:48;;;;;;;19.03;12.43;;;;;;;3.64;87.92;97275.25;5006315;28;20024;-80
2022/01/15 10:00:16;;;;;;;18.77;10.93;;;;;;;2.75;91.70;97286.38;5026635;28;20081;-80
2022/01/15 10:02:44;;;;;;;20.67;12.30;;;;;;;2.52;94.53;97285.06;5028932;28;20029;-79
2022/01/15 10:05:12;;;;;;;16.80;10.73;;;;;;;3.15;89.81;97283.28;5018703;28;20784;-81
2022/01/15 10:07:52;;;;;;;19.00;11.17;;;;;;;2.46;91.88;97285.38;5009630;28;20025;-78
2022/01/15 10:10:20;;;;;;;17.67;10.53;;;;;;;3.13;88.58;97279.97;5020587;28;20047;-79
2022/01/15 10:12:46;;;;;;;17.07;9.83;;;;;;;2.89;89.73;97279.59;5037582;28;20040;-80
2022/01/15 10:15:14;;;;;;;13.93;8.53;;;;;;;2.86;90.95;97275.41;5023421;28;20116;-79
2022/01/15 10:17:40;;;;;;;16.17;9.90;;;;;;;2.44;91.25;97283.78;5028024;28;20033;-80
2022/01/15 10:20:18;;;;;;;17.63;9.00;;;;;;;3.04;92.33;97282.13;5009861;28;20493;-79
2022/01/15 10:22:46;;;;;;;16.17;8.27;;;;;;;3.25;90.98;97276.63;5041065;28;20482;-79
2022/01/15 10:25:19;;;;;;;16.23;8.97;;;;;;;4.25;83.61;97276.75;5024244;28;20018;-79
2022/01/15 10:27:53;;;;;;;14.68;8.45;;;;;;;3.60;84.08;97274.59;5020708;28;20025;-80
2022/01/15 10:30:18;;;;;;;15.37;9.57;;;;;;;3.63;84.46;97273.59;5021380;28;20057;-79
2022/01/15 10:33:02;;;;;;;14.80;9.17;;;;;;;4.46;85.50;97270.22;5015863;28;20063;-79
2022/01/15 10:35:42;;;;;;;14.68;8.57;;;;;;;4.07;81.72;97273.50;5010739;28;20029;-79
2022/01/15 10:38:16;;;;;;;15.20;8.93;;;;;;;4.76;80.82;97265.75;5019178;28;20073;-79
2022/01/15 10:40:47;;;;;;;15.97;9.60;;;;;;;4.45;82.55;97268.53;5041052;28;20093;-79
2022/01/15 10:43:16;;;;;;;19.80;12.63;;;;;;;5.16;82.57;97259.66;5021799;28;20040;-79
2022/01/15 10:45:56;;;;;;;17.40;11.27;;;;;;;4.67;81.66;97267.19;5004231;28;20049;-79
2022/01/15 10:48:25;;;;;;;17.17;9.70;;;;;;;4.58;83.35;97259.94;4999729;28;20487;-79
2022/01/15 10:50:56;;;;;;;16.80;9.37;;;;;;;4.48;84.72;97260.50;5009279;28;20109;-81
2022/01/15 10:53:33;;;;;;;16.53;9.47;;;;;;;4.93;81.48;97248.13;5032091;28;20041;-80
2022/01/15 10:55:59;;;;;;;18.23;9.27;;;;;;;4.25;84.21;97248.09;5018471;28;20033;-79
2022/01/15 10:58:25;;;;;;;17.53;9.30;;;;;;;4.16;86.76;97243.47;5022612;28;20025;-81
2022/01/15 11:00:52;;;;;;;16.50;8.90;;;;;;;4.55;88.32;97234.09;5006446;28;20513;-78
2022/01/15 11:03:19;;;;;;;16.80;9.37;;;;;;;4.91;82.76;97229.13;5022258;28;20076;-79
2022/01/15 11:05:47;;;;;;;15.60;8.73;;;;;;;4.87;82.17;97232.88;5011990;28;20045;-82
2022/01/15 11:08:33;;;;;;;18.77;9.70;;;;;;;4.11;86.60;97232.50;5015275;28;20041;-78
2022/01/15 11:11:11;;;;;;;16.07;8.53;;;;;;;4.11;86.91;97232.50;5029132;28;20030;-80
2022/01/15 11:13:41;;;;;;;17.77;8.93;;;;;;;4.33;85.03;97230.25;5017928;28;20083;-78
2022/01/15 11:16:12;;;;;;;17.20;8.87;;;;;;;4.51;83.98;97220.44;5029347;28;20037;-80
2022/01/15 11:18:44;;;;;;;16.87;8.67;;;;;;;4.46;86.66;97218.13;5015437;28;20033;-78
2022/01/15 11:21:13;;;;;;;16.43;9.73;;;;;;;4.92;83.94;97217.75;5043347;28;20044;-77
2022/01/15 11:23:40;;;;;;;22.37;10.63;;;;;;;4.22;87.61;97224.84;5006460;28;20378;-78
2022/01/15 11:26:13;;;;;;;19.30;10.27;;;;;;;4.65;85.59;97209.13;5040819;28;20536;-79
2022/01/15 11:28:42;;;;;;;17.17;8.88;;;;;;;4.46;85.07;97207.72;5022072;28;20021;-78
2022/01/15 11:31:11;;;;;;;15.60;8.60;;;;;;;4.93;85.38;97197.75;5023892;28;20397;-78
2022/01/15 11:33:46;;;;;;;15.70;9.27;;;;;;;4.81;83.96;97196.78;5006765;28;20363;-80
2022/01/15 11:36:29;;;;;;;17.03;9.07;;;;;;;5.39;82.60;97202.50;5015619;28;20060;-79
2022/01/15 11:38:54;;;;;;;14.48;8.10;;;;;;;4.54;84.76;97199.41;4992426;28;20033;-78